sensor_id;sensor_type;location;lat;lon;timestamp;temperature;humidity
36450;DHT22;22475;51.390;7.180;2023-04-06T00:00:07;10.90;75.40
36450;DHT22;22475;51.390;7.180;2023-04-06T00:02:36;10.90;75.50
36450;DHT22;22475;51.390;7.180;2023-04-06T00:05:03;10.90;75.50
36450;DHT22;22475;51.390;7.180;2023-04-06T00:07:30;10.80;75.40
36450;DHT22;22475;51.390;7.180;2023-04-06T00:09:58;10.90;75.50
36450;DHT22;22475;51.390;7.180;2023-04-06T00:12:25;10.90;75.40
36450;DHT22;22475;51.390;7.180;2023-04-06T00:14:52;10.80;75.30
36450;DHT22;22475;51.390;7.180;2023-04-06T00:17:19;10.80;75.30
36450;DHT22;22475;51.390;7.180;2023-04-06T00:19:47;10.80;75.30
36450;DHT22;22475;51.390;7.180;2023-04-06T00:22:14;10.80;75.70
36450;DHT22;22475;51.390;7.180;2023-04-06T00:24:44;10.80;75.10
36450;DHT22;22475;51.390;7.180;2023-04-06T00:27:10;10.80;75.00
36450;DHT22;22475;51.390;7.180;2023-04-06T00:29:37;10.80;75.00
36450;DHT22;22475;51.390;7.180;2023-04-06T00:32:04;10.80;75.10
36450;DHT22;22475;51.390;7.180;2023-04-06T00:34:31;10.80;75.00
36450;DHT22;22475;51.390;7.180;2023-04-06T00:36:59;10.80;75.00
36450;DHT22;22475;51.390;7.180;2023-04-06T00:39:26;10.80;75.00
36450;DHT22;22475;51.390;7.180;2023-04-06T00:41:53;10.70;75.00
36450;DHT22;22475;51.390;7.180;2023-04-06T00:44:20;10.80;75.00
36450;DHT22;22475;51.390;7.180;2023-04-06T00:46:48;10.70;74.90
36450;DHT22;22475;51.390;7.180;2023-04-06T00:49:15;10.80;75.00
36450;DHT22;22475;51.390;7.180;2023-04-06T00:51:42;10.70;74.90
36450;DHT22;22475;51.390;7.180;2023-04-06T00:54:10;10.70;74.90
36450;DHT22;22475;51.390;7.180;2023-04-06T00:56:37;10.70;74.90
36450;DHT22;22475;51.390;7.180;2023-04-06T00:59:04;10.70;74.90
36450;DHT22;22475;51.390;7.180;2023-04-06T01:01:31;10.70;74.90
36450;DHT22;22475;51.390;7.180;2023-04-06T01:03:58;10.70;75.00
36450;DHT22;22475;51.390;7.180;2023-04-06T01:06:25;10.70;75.10
36450;DHT22;22475;51.390;7.180;2023-04-06T01:08:52;10.70;75.10
36450;DHT22;22475;51.390;7.180;2023-04-06T01:11:20;10.70;75.00
36450;DHT22;22475;51.390;7.180;2023-04-06T01:13:47;10.70;75.10
36450;DHT22;22475;51.390;7.180;2023-04-06T01:16:15;10.70;75.00
36450;DHT22;22475;51.390;7.180;2023-04-06T01:18:42;10.70;75.00
36450;DHT22;22475;51.390;7.180;2023-04-06T01:21:08;10.70;74.90
36450;DHT22;22475;51.390;7.180;2023-04-06T01:23:42;10.70;74.90
36450;DHT22;22475;51.390;7.180;2023-04-06T01:26:09;10.70;74.80
36450;DHT22;22475;51.390;7.180;2023-04-06T01:28:36;10.70;74.80
36450;DHT22;22475;51.390;7.180;2023-04-06T01:31:04;10.70;74.70
36450;DHT22;22475;51.390;7.180;2023-04-06T01:33:31;10.70;74.70
36450;DHT22;22475;51.390;7.180;2023-04-06T01:35:58;10.60;74.80
36450;DHT22;22475;51.390;7.180;2023-04-06T01:38:25;10.70;74.90
36450;DHT22;22475;51.390;7.180;2023-04-06T01:40:53;10.70;75.10
36450;DHT22;22475;51.390;7.180;2023-04-06T01:43:20;10.70;75.20
36450;DHT22;22475;51.390;7.180;2023-04-06T01:45:48;10.60;75.10
36450;DHT22;22475;51.390;7.180;2023-04-06T01:48:15;10.60;75.10
36450;DHT22;22475;51.390;7.180;2023-04-06T01:50:42;10.60;75.10
36450;DHT22;22475;51.390;7.180;2023-04-06T01:53:08;10.60;75.00
36450;DHT22;22475;51.390;7.180;2023-04-06T01:55:35;10.60;74.90
36450;DHT22;22475;51.390;7.180;2023-04-06T01:58:04;10.60;75.60
36450;DHT22;22475;51.390;7.180;2023-04-06T02:00:30;10.60;74.80
36450;DHT22;22475;51.390;7.180;2023-04-06T02:02:57;10.60;74.80
36450;DHT22;22475;51.390;7.180;2023-04-06T02:05:25;10.60;75.10
36450;DHT22;22475;51.390;7.180;2023-04-06T02:07:51;10.60;75.10
36450;DHT22;22475;51.390;7.180;2023-04-06T02:10:18;10.60;75.10
36450;DHT22;22475;51.390;7.180;2023-04-06T02:12:45;10.60;75.10
36450;DHT22;22475;51.390;7.180;2023-04-06T02:15:14;10.60;75.00
36450;DHT22;22475;51.390;7.180;2023-04-06T02:17:41;10.60;74.90
36450;DHT22;22475;51.390;7.180;2023-04-06T02:20:08;10.60;74.80
36450;DHT22;22475;51.390;7.180;2023-04-06T02:22:35;10.60;75.00
36450;DHT22;22475;51.390;7.180;2023-04-06T02:25:03;10.60;75.10
36450;DHT22;22475;51.390;7.180;2023-04-06T02:27:30;10.60;75.00
36450;DHT22;22475;51.390;7.180;2023-04-06T02:29:56;10.60;75.00
36450;DHT22;22475;51.390;7.180;2023-04-06T02:32:25;10.60;74.90
36450;DHT22;22475;51.390;7.180;2023-04-06T02:34:52;10.60;74.90
36450;DHT22;22475;51.390;7.180;2023-04-06T02:37:18;10.60;74.80
36450;DHT22;22475;51.390;7.180;2023-04-06T02:39:45;10.60;74.80
36450;DHT22;22475;51.390;7.180;2023-04-06T02:42:12;10.60;74.70
36450;DHT22;22475;51.390;7.180;2023-04-06T02:44:40;10.60;74.70
36450;DHT22;22475;51.390;7.180;2023-04-06T02:47:07;10.60;74.70
36450;DHT22;22475;51.390;7.180;2023-04-06T02:49:35;10.50;74.70
36450;DHT22;22475;51.390;7.180;2023-04-06T02:52:02;10.50;74.70
36450;DHT22;22475;51.390;7.180;2023-04-06T02:54:29;10.60;74.70
36450;DHT22;22475;51.390;7.180;2023-04-06T02:56:56;10.60;74.70
36450;DHT22;22475;51.390;7.180;2023-04-06T02:59:23;10.60;74.80
36450;DHT22;22475;51.390;7.180;2023-04-06T03:01:51;10.60;74.90
36450;DHT22;22475;51.390;7.180;2023-04-06T03:04:18;10.50;74.80
36450;DHT22;22475;51.390;7.180;2023-04-06T03:06:46;10.50;74.90
36450;DHT22;22475;51.390;7.180;2023-04-06T03:09:13;10.60;75.00
36450;DHT22;22475;51.390;7.180;2023-04-06T03:11:40;10.50;74.90
36450;DHT22;22475;51.390;7.180;2023-04-06T03:14:07;10.50;74.80
36450;DHT22;22475;51.390;7.180;2023-04-06T03:16:34;10.50;74.60
36450;DHT22;22475;51.390;7.180;2023-04-06T03:19:01;10.50;74.50
36450;DHT22;22475;51.390;7.180;2023-04-06T03:21:28;10.50;74.50
36450;DHT22;22475;51.390;7.180;2023-04-06T03:23:56;10.60;74.50
36450;DHT22;22475;51.390;7.180;2023-04-06T03:26:23;10.50;74.50
36450;DHT22;22475;51.390;7.180;2023-04-06T03:28:49;10.50;74.60
36450;DHT22;22475;51.390;7.180;2023-04-06T03:31:16;10.50;74.50
36450;DHT22;22475;51.390;7.180;2023-04-06T03:33:43;10.50;74.50
36450;DHT22;22475;51.390;7.180;2023-04-06T03:36:10;10.50;74.40
36450;DHT22;22475;51.390;7.180;2023-04-06T03:38:37;10.50;74.40
36450;DHT22;22475;51.390;7.180;2023-04-06T03:41:05;10.50;74.50
36450;DHT22;22475;51.390;7.180;2023-04-06T03:43:32;10.50;74.50
36450;DHT22;22475;51.390;7.180;2023-04-06T03:45:59;10.50;74.40
36450;DHT22;22475;51.390;7.180;2023-04-06T03:48:26;10.50;74.40
36450;DHT22;22475;51.390;7.180;2023-04-06T03:50:52;10.50;74.40
36450;DHT22;22475;51.390;7.180;2023-04-06T03:53:19;10.50;74.50
36450;DHT22;22475;51.390;7.180;2023-04-06T03:55:46;10.50;74.50
36450;DHT22;22475;51.390;7.180;2023-04-06T03:58:14;10.50;74.60
36450;DHT22;22475;51.390;7.180;2023-04-06T04:00:41;10.50;74.70
36450;DHT22;22475;51.390;7.180;2023-04-06T04:03:08;10.50;74.70
36450;DHT22;22475;51.390;7.180;2023-04-06T04:05:35;10.50;74.60
36450;DHT22;22475;51.390;7.180;2023-04-06T04:08:02;10.50;74.50
36450;DHT22;22475;51.390;7.180;2023-04-06T04:10:29;10.50;74.60
36450;DHT22;22475;51.390;7.180;2023-04-06T04:12:56;10.40;74.70
36450;DHT22;22475;51.390;7.180;2023-04-06T04:15:24;10.40;74.70
36450;DHT22;22475;51.390;7.180;2023-04-06T04:17:51;10.50;74.80
36450;DHT22;22475;51.390;7.180;2023-04-06T04:20:18;10.40;74.70
36450;DHT22;22475;51.390;7.180;2023-04-06T04:22:45;10.40;74.80
36450;DHT22;22475;51.390;7.180;2023-04-06T04:25:12;10.40;74.70
36450;DHT22;22475;51.390;7.180;2023-04-06T04:27:38;10.40;74.70
36450;DHT22;22475;51.390;7.180;2023-04-06T04:30:06;10.40;74.70
36450;DHT22;22475;51.390;7.180;2023-04-06T04:32:35;10.40;74.80
36450;DHT22;22475;51.390;7.180;2023-04-06T04:35:02;10.40;75.10
36450;DHT22;22475;51.390;7.180;2023-04-06T04:37:29;10.40;75.10
36450;DHT22;22475;51.390;7.180;2023-04-06T04:39:56;10.40;75.10
36450;DHT22;22475;51.390;7.180;2023-04-06T04:42:23;10.40;75.00
36450;DHT22;22475;51.390;7.180;2023-04-06T04:44:49;10.40;74.90
36450;DHT22;22475;51.390;7.180;2023-04-06T04:47:16;10.40;74.80
36450;DHT22;22475;51.390;7.180;2023-04-06T04:49:44;10.40;74.80
36450;DHT22;22475;51.390;7.180;2023-04-06T04:52:11;10.40;74.80
36450;DHT22;22475;51.390;7.180;2023-04-06T04:54:38;10.40;74.70
36450;DHT22;22475;51.390;7.180;2023-04-06T04:57:06;10.40;74.70
36450;DHT22;22475;51.390;7.180;2023-04-06T04:59:34;10.40;75.50
36450;DHT22;22475;51.390;7.180;2023-04-06T05:02:01;10.40;74.80
36450;DHT22;22475;51.390;7.180;2023-04-06T05:04:28;10.40;74.70
36450;DHT22;22475;51.390;7.180;2023-04-06T05:07:04;10.40;74.60
36450;DHT22;22475;51.390;7.180;2023-04-06T05:09:31;10.40;74.50
36450;DHT22;22475;51.390;7.180;2023-04-06T05:11:58;10.40;74.50
36450;DHT22;22475;51.390;7.180;2023-04-06T05:14:25;10.40;74.60
36450;DHT22;22475;51.390;7.180;2023-04-06T05:16:52;10.40;74.50
36450;DHT22;22475;51.390;7.180;2023-04-06T05:19:19;10.40;74.50
36450;DHT22;22475;51.390;7.180;2023-04-06T05:21:46;10.40;74.40
36450;DHT22;22475;51.390;7.180;2023-04-06T05:24:14;10.40;74.40
36450;DHT22;22475;51.390;7.180;2023-04-06T05:26:41;10.40;74.30
36450;DHT22;22475;51.390;7.180;2023-04-06T05:29:09;10.40;74.30
36450;DHT22;22475;51.390;7.180;2023-04-06T05:31:36;10.30;74.30
36450;DHT22;22475;51.390;7.180;2023-04-06T05:34:03;10.40;74.20
36450;DHT22;22475;51.390;7.180;2023-04-06T05:36:30;10.30;74.30
36450;DHT22;22475;51.390;7.180;2023-04-06T05:38:57;10.40;74.50
36450;DHT22;22475;51.390;7.180;2023-04-06T05:41:26;10.40;74.80
36450;DHT22;22475;51.390;7.180;2023-04-06T05:43:53;10.40;74.90
36450;DHT22;22475;51.390;7.180;2023-04-06T05:46:20;10.40;74.90
36450;DHT22;22475;51.390;7.180;2023-04-06T05:48:46;10.40;74.90
36450;DHT22;22475;51.390;7.180;2023-04-06T05:51:13;10.40;75.00
36450;DHT22;22475;51.390;7.180;2023-04-06T05:53:40;10.40;75.00
36450;DHT22;22475;51.390;7.180;2023-04-06T05:56:07;10.40;74.90
36450;DHT22;22475;51.390;7.180;2023-04-06T05:58:35;10.30;74.80
36450;DHT22;22475;51.390;7.180;2023-04-06T06:01:02;10.40;75.10
36450;DHT22;22475;51.390;7.180;2023-04-06T06:03:30;10.40;75.10
36450;DHT22;22475;51.390;7.180;2023-04-06T06:06:00;10.40;75.10
36450;DHT22;22475;51.390;7.180;2023-04-06T06:08:27;10.40;75.20
36450;DHT22;22475;51.390;7.180;2023-04-06T06:10:54;10.40;75.20
36450;DHT22;22475;51.390;7.180;2023-04-06T06:13:22;10.40;75.40
36450;DHT22;22475;51.390;7.180;2023-04-06T06:15:50;10.40;75.30
36450;DHT22;22475;51.390;7.180;2023-04-06T06:18:17;10.40;75.20
36450;DHT22;22475;51.390;7.180;2023-04-06T06:20:43;10.40;75.20
36450;DHT22;22475;51.390;7.180;2023-04-06T06:23:11;10.40;75.20
36450;DHT22;22475;51.390;7.180;2023-04-06T06:25:38;10.40;75.20
36450;DHT22;22475;51.390;7.180;2023-04-06T06:28:05;10.40;75.40
36450;DHT22;22475;51.390;7.180;2023-04-06T06:30:32;10.40;75.40
36450;DHT22;22475;51.390;7.180;2023-04-06T06:33:01;10.40;75.60
36450;DHT22;22475;51.390;7.180;2023-04-06T06:35:28;10.40;75.80
36450;DHT22;22475;51.390;7.180;2023-04-06T06:37:55;10.40;75.90
36450;DHT22;22475;51.390;7.180;2023-04-06T06:40:22;10.40;76.20
36450;DHT22;22475;51.390;7.180;2023-04-06T06:42:51;10.50;76.40
36450;DHT22;22475;51.390;7.180;2023-04-06T06:45:18;10.50;76.50
36450;DHT22;22475;51.390;7.180;2023-04-06T06:47:45;10.50;76.60
36450;DHT22;22475;51.390;7.180;2023-04-06T06:50:14;10.50;76.80
36450;DHT22;22475;51.390;7.180;2023-04-06T06:52:41;10.50;76.80
36450;DHT22;22475;51.390;7.180;2023-04-06T06:55:09;10.50;76.60
36450;DHT22;22475;51.390;7.180;2023-04-06T06:57:36;10.50;76.80
36450;DHT22;22475;51.390;7.180;2023-04-06T07:00:04;10.50;76.80
36450;DHT22;22475;51.390;7.180;2023-04-06T07:02:34;10.60;76.70
36450;DHT22;22475;51.390;7.180;2023-04-06T07:05:01;10.60;76.60
36450;DHT22;22475;51.390;7.180;2023-04-06T07:07:29;10.60;76.70
36450;DHT22;22475;51.390;7.180;2023-04-06T07:09:56;10.60;76.50
36450;DHT22;22475;51.390;7.180;2023-04-06T07:12:23;10.60;76.60
36450;DHT22;22475;51.390;7.180;2023-04-06T07:14:50;10.60;76.50
36450;DHT22;22475;51.390;7.180;2023-04-06T07:17:17;10.60;76.50
36450;DHT22;22475;51.390;7.180;2023-04-06T07:19:44;10.60;76.70
36450;DHT22;22475;51.390;7.180;2023-04-06T07:22:11;10.70;77.00
36450;DHT22;22475;51.390;7.180;2023-04-06T07:24:40;10.70;77.30
36450;DHT22;22475;51.390;7.180;2023-04-06T07:27:07;10.70;77.60
36450;DHT22;22475;51.390;7.180;2023-04-06T07:29:33;10.70;77.80
36450;DHT22;22475;51.390;7.180;2023-04-06T07:32:00;10.80;78.10
36450;DHT22;22475;51.390;7.180;2023-04-06T07:34:27;10.80;78.30
36450;DHT22;22475;51.390;7.180;2023-04-06T07:36:54;10.80;78.50
36450;DHT22;22475;51.390;7.180;2023-04-06T07:39:22;10.80;79.30
36450;DHT22;22475;51.390;7.180;2023-04-06T07:41:50;10.80;78.60
36450;DHT22;22475;51.390;7.180;2023-04-06T07:44:17;10.90;78.80
36450;DHT22;22475;51.390;7.180;2023-04-06T07:46:44;10.90;78.80
36450;DHT22;22475;51.390;7.180;2023-04-06T07:49:10;10.90;78.90
36450;DHT22;22475;51.390;7.180;2023-04-06T07:51:38;10.90;79.70
36450;DHT22;22475;51.390;7.180;2023-04-06T07:54:05;10.90;78.90
36450;DHT22;22475;51.390;7.180;2023-04-06T07:56:32;10.90;78.90
36450;DHT22;22475;51.390;7.180;2023-04-06T07:59:00;10.90;79.00
36450;DHT22;22475;51.390;7.180;2023-04-06T08:01:28;10.90;79.00
36450;DHT22;22475;51.390;7.180;2023-04-06T08:03:55;10.90;78.90
36450;DHT22;22475;51.390;7.180;2023-04-06T08:06:22;11.00;79.00
36450;DHT22;22475;51.390;7.180;2023-04-06T08:08:49;11.00;79.00
36450;DHT22;22475;51.390;7.180;2023-04-06T08:11:16;10.90;78.60
36450;DHT22;22475;51.390;7.180;2023-04-06T08:13:43;11.00;79.40
36450;DHT22;22475;51.390;7.180;2023-04-06T08:16:11;11.00;78.60
36450;DHT22;22475;51.390;7.180;2023-04-06T08:18:38;11.00;78.60
36450;DHT22;22475;51.390;7.180;2023-04-06T08:21:05;10.90;78.50
36450;DHT22;22475;51.390;7.180;2023-04-06T08:23:32;11.00;78.50
36450;DHT22;22475;51.390;7.180;2023-04-06T08:25:59;11.00;78.20
36450;DHT22;22475;51.390;7.180;2023-04-06T08:28:26;11.00;79.00
36450;DHT22;22475;51.390;7.180;2023-04-06T08:30:53;11.00;78.40
36450;DHT22;22475;51.390;7.180;2023-04-06T08:33:21;11.00;78.60
36450;DHT22;22475;51.390;7.180;2023-04-06T08:35:48;11.10;78.70
36450;DHT22;22475;51.390;7.180;2023-04-06T08:38:15;11.00;78.60
36450;DHT22;22475;51.390;7.180;2023-04-06T08:40:42;11.00;78.50
36450;DHT22;22475;51.390;7.180;2023-04-06T08:43:13;11.00;78.60
36450;DHT22;22475;51.390;7.180;2023-04-06T08:45:40;11.00;78.70
36450;DHT22;22475;51.390;7.180;2023-04-06T08:48:08;11.10;78.80
36450;DHT22;22475;51.390;7.180;2023-04-06T08:50:38;11.10;78.90
36450;DHT22;22475;51.390;7.180;2023-04-06T08:53:06;11.10;79.00
36450;DHT22;22475;51.390;7.180;2023-04-06T08:55:34;11.10;79.00
36450;DHT22;22475;51.390;7.180;2023-04-06T08:58:01;11.10;79.10
36450;DHT22;22475;51.390;7.180;2023-04-06T09:00:30;11.10;78.90
36450;DHT22;22475;51.390;7.180;2023-04-06T09:02:57;11.10;78.80
36450;DHT22;22475;51.390;7.180;2023-04-06T09:05:25;11.10;78.80
36450;DHT22;22475;51.390;7.180;2023-04-06T09:07:53;11.10;78.90
36450;DHT22;22475;51.390;7.180;2023-04-06T09:10:21;11.10;78.90
36450;DHT22;22475;51.390;7.180;2023-04-06T09:12:49;11.10;79.00
36450;DHT22;22475;51.390;7.180;2023-04-06T09:15:20;11.10;79.10
36450;DHT22;22475;51.390;7.180;2023-04-06T09:17:47;11.10;79.10
36450;DHT22;22475;51.390;7.180;2023-04-06T09:20:14;11.10;79.10
36450;DHT22;22475;51.390;7.180;2023-04-06T09:22:42;11.10;79.20
36450;DHT22;22475;51.390;7.180;2023-04-06T09:25:18;11.10;79.20
36450;DHT22;22475;51.390;7.180;2023-04-06T09:27:46;11.10;79.20
36450;DHT22;22475;51.390;7.180;2023-04-06T09:30:13;11.20;79.20
36450;DHT22;22475;51.390;7.180;2023-04-06T09:32:46;11.20;79.30
36450;DHT22;22475;51.390;7.180;2023-04-06T09:35:14;11.20;79.30
36450;DHT22;22475;51.390;7.180;2023-04-06T09:37:42;11.10;79.20
36450;DHT22;22475;51.390;7.180;2023-04-06T09:40:11;11.20;79.30
36450;DHT22;22475;51.390;7.180;2023-04-06T09:42:41;11.20;79.30
36450;DHT22;22475;51.390;7.180;2023-04-06T09:45:08;11.20;79.30
36450;DHT22;22475;51.390;7.180;2023-04-06T09:47:36;11.20;79.10
36450;DHT22;22475;51.390;7.180;2023-04-06T09:50:03;11.20;79.00
36450;DHT22;22475;51.390;7.180;2023-04-06T09:52:32;11.20;79.00
36450;DHT22;22475;51.390;7.180;2023-04-06T09:55:02;11.20;79.00
36450;DHT22;22475;51.390;7.180;2023-04-06T09:57:32;11.20;79.00
36450;DHT22;22475;51.390;7.180;2023-04-06T10:00:05;11.20;79.10
36450;DHT22;22475;51.390;7.180;2023-04-06T10:02:41;11.20;78.90
36450;DHT22;22475;51.390;7.180;2023-04-06T10:05:16;11.20;78.80
36450;DHT22;22475;51.390;7.180;2023-04-06T10:07:45;11.20;78.60
36450;DHT22;22475;51.390;7.180;2023-04-06T10:10:14;11.20;78.70
36450;DHT22;22475;51.390;7.180;2023-04-06T10:12:43;11.20;78.70
36450;DHT22;22475;51.390;7.180;2023-04-06T10:15:11;11.20;79.60
36450;DHT22;22475;51.390;7.180;2023-04-06T10:17:37;11.20;79.00
36450;DHT22;22475;51.390;7.180;2023-04-06T10:20:08;11.20;79.10
36450;DHT22;22475;51.390;7.180;2023-04-06T10:22:43;11.20;79.20
36450;DHT22;22475;51.390;7.180;2023-04-06T10:25:10;11.30;79.30
36450;DHT22;22475;51.390;7.180;2023-04-06T10:27:37;11.20;79.30
36450;DHT22;22475;51.390;7.180;2023-04-06T10:30:07;11.30;79.30
36450;DHT22;22475;51.390;7.180;2023-04-06T10:32:35;11.30;79.20
36450;DHT22;22475;51.390;7.180;2023-04-06T10:35:07;11.30;79.20
36450;DHT22;22475;51.390;7.180;2023-04-06T10:37:46;11.30;79.40
36450;DHT22;22475;51.390;7.180;2023-04-06T10:40:19;11.30;80.00
36450;DHT22;22475;51.390;7.180;2023-04-06T10:42:46;11.30;78.90
36450;DHT22;22475;51.390;7.180;2023-04-06T10:45:21;11.30;78.70
36450;DHT22;22475;51.390;7.180;2023-04-06T10:47:49;11.30;78.80
36450;DHT22;22475;51.390;7.180;2023-04-06T10:50:16;11.30;78.90
36450;DHT22;22475;51.390;7.180;2023-04-06T10:52:44;11.30;78.70
36450;DHT22;22475;51.390;7.180;2023-04-06T10:55:12;11.30;78.90
36450;DHT22;22475;51.390;7.180;2023-04-06T10:57:40;11.30;79.10
36450;DHT22;22475;51.390;7.180;2023-04-06T11:00:08;11.30;79.20
36450;DHT22;22475;51.390;7.180;2023-04-06T11:02:36;11.30;79.30
36450;DHT22;22475;51.390;7.180;2023-04-06T11:05:04;11.30;79.30
36450;DHT22;22475;51.390;7.180;2023-04-06T11:07:32;11.30;79.40
36450;DHT22;22475;51.390;7.180;2023-04-06T11:09:59;11.40;79.50
36450;DHT22;22475;51.390;7.180;2023-04-06T11:12:27;11.40;79.60
36450;DHT22;22475;51.390;7.180;2023-04-06T11:14:56;11.40;79.60
36450;DHT22;22475;51.390;7.180;2023-04-06T11:17:28;11.40;79.50
36450;DHT22;22475;51.390;7.180;2023-04-06T11:19:57;11.40;79.50
36450;DHT22;22475;51.390;7.180;2023-04-06T11:22:24;11.40;79.70
36450;DHT22;22475;51.390;7.180;2023-04-06T11:24:52;11.40;79.90
36450;DHT22;22475;51.390;7.180;2023-04-06T11:27:19;11.40;79.90
36450;DHT22;22475;51.390;7.180;2023-04-06T11:29:47;11.40;79.90
36450;DHT22;22475;51.390;7.180;2023-04-06T11:32:20;11.40;79.90
36450;DHT22;22475;51.390;7.180;2023-04-06T11:34:48;11.40;79.90
36450;DHT22;22475;51.390;7.180;2023-04-06T11:37:16;11.40;80.70
36450;DHT22;22475;51.390;7.180;2023-04-06T11:39:47;11.40;79.90
36450;DHT22;22475;51.390;7.180;2023-04-06T11:42:21;11.50;80.00
36450;DHT22;22475;51.390;7.180;2023-04-06T11:44:50;11.40;79.90
36450;DHT22;22475;51.390;7.180;2023-04-06T11:47:19;11.40;79.90
36450;DHT22;22475;51.390;7.180;2023-04-06T11:49:47;11.40;79.90
36450;DHT22;22475;51.390;7.180;2023-04-06T11:52:17;11.40;79.90
36450;DHT22;22475;51.390;7.180;2023-04-06T11:54:45;11.50;80.00
36450;DHT22;22475;51.390;7.180;2023-04-06T11:57:12;11.40;79.90
36450;DHT22;22475;51.390;7.180;2023-04-06T11:59:39;11.40;80.70
36450;DHT22;22475;51.390;7.180;2023-04-06T12:02:06;11.50;80.00
36450;DHT22;22475;51.390;7.180;2023-04-06T12:04:33;11.50;80.00
36450;DHT22;22475;51.390;7.180;2023-04-06T12:07:00;11.50;80.00
36450;DHT22;22475;51.390;7.180;2023-04-06T12:09:29;11.50;80.20
36450;DHT22;22475;51.390;7.180;2023-04-06T12:11:56;11.50;81.10
36450;DHT22;22475;51.390;7.180;2023-04-06T12:14:23;11.50;80.30
36450;DHT22;22475;51.390;7.180;2023-04-06T12:16:50;11.50;80.30
36450;DHT22;22475;51.390;7.180;2023-04-06T12:19:17;11.50;80.00
36450;DHT22;22475;51.390;7.180;2023-04-06T12:21:43;11.50;80.00
36450;DHT22;22475;51.390;7.180;2023-04-06T12:24:10;11.50;80.00
36450;DHT22;22475;51.390;7.180;2023-04-06T12:26:38;11.50;80.00
36450;DHT22;22475;51.390;7.180;2023-04-06T12:29:07;11.50;80.10
36450;DHT22;22475;51.390;7.180;2023-04-06T12:31:35;11.50;80.20
36450;DHT22;22475;51.390;7.180;2023-04-06T12:34:02;11.50;80.20
36450;DHT22;22475;51.390;7.180;2023-04-06T12:36:29;11.50;80.20
36450;DHT22;22475;51.390;7.180;2023-04-06T12:38:57;11.50;80.00
36450;DHT22;22475;51.390;7.180;2023-04-06T12:41:24;11.50;80.00
36450;DHT22;22475;51.390;7.180;2023-04-06T12:43:52;11.50;80.00
36450;DHT22;22475;51.390;7.180;2023-04-06T12:46:19;11.60;80.10
36450;DHT22;22475;51.390;7.180;2023-04-06T12:48:46;11.50;80.00
36450;DHT22;22475;51.390;7.180;2023-04-06T12:51:13;11.50;80.10
36450;DHT22;22475;51.390;7.180;2023-04-06T12:53:40;11.50;80.20
36450;DHT22;22475;51.390;7.180;2023-04-06T12:56:12;11.50;80.20
36450;DHT22;22475;51.390;7.180;2023-04-06T12:58:39;11.60;80.00
36450;DHT22;22475;51.390;7.180;2023-04-06T13:01:08;11.60;80.00
36450;DHT22;22475;51.390;7.180;2023-04-06T13:03:37;11.60;80.00
36450;DHT22;22475;51.390;7.180;2023-04-06T13:06:03;11.60;80.00
36450;DHT22;22475;51.390;7.180;2023-04-06T13:08:30;11.60;80.00
36450;DHT22;22475;51.390;7.180;2023-04-06T13:10:57;11.60;80.00
36450;DHT22;22475;51.390;7.180;2023-04-06T13:13:26;11.60;80.00
36450;DHT22;22475;51.390;7.180;2023-04-06T13:15:54;11.60;79.90
36450;DHT22;22475;51.390;7.180;2023-04-06T13:18:22;11.60;80.00
36450;DHT22;22475;51.390;7.180;2023-04-06T13:20:49;11.50;80.00
36450;DHT22;22475;51.390;7.180;2023-04-06T13:23:16;11.60;80.00
36450;DHT22;22475;51.390;7.180;2023-04-06T13:25:43;11.60;80.20
36450;DHT22;22475;51.390;7.180;2023-04-06T13:28:10;11.60;80.50
36450;DHT22;22475;51.390;7.180;2023-04-06T13:30:37;11.60;80.30
36450;DHT22;22475;51.390;7.180;2023-04-06T13:33:04;11.60;80.20
36450;DHT22;22475;51.390;7.180;2023-04-06T13:35:33;11.60;80.00
36450;DHT22;22475;51.390;7.180;2023-04-06T13:38:01;11.60;80.00
36450;DHT22;22475;51.390;7.180;2023-04-06T13:40:29;11.60;80.00
36450;DHT22;22475;51.390;7.180;2023-04-06T13:42:56;11.60;80.10
36450;DHT22;22475;51.390;7.180;2023-04-06T13:45:22;11.60;80.00
36450;DHT22;22475;51.390;7.180;2023-04-06T13:47:49;11.60;80.00
36450;DHT22;22475;51.390;7.180;2023-04-06T13:50:16;11.60;80.10
36450;DHT22;22475;51.390;7.180;2023-04-06T13:52:44;11.60;80.00
36450;DHT22;22475;51.390;7.180;2023-04-06T13:55:13;11.60;80.00
36450;DHT22;22475;51.390;7.180;2023-04-06T13:57:40;11.60;80.10
36450;DHT22;22475;51.390;7.180;2023-04-06T14:00:08;11.60;80.20
36450;DHT22;22475;51.390;7.180;2023-04-06T14:02:37;11.60;80.30
36450;DHT22;22475;51.390;7.180;2023-04-06T14:05:06;11.60;80.30
36450;DHT22;22475;51.390;7.180;2023-04-06T14:07:33;11.70;80.40
36450;DHT22;22475;51.390;7.180;2023-04-06T14:10:01;11.70;80.40
36450;DHT22;22475;51.390;7.180;2023-04-06T14:12:28;11.70;80.50
36450;DHT22;22475;51.390;7.180;2023-04-06T14:14:57;11.70;80.50
36450;DHT22;22475;51.390;7.180;2023-04-06T14:17:24;11.70;80.50
36450;DHT22;22475;51.390;7.180;2023-04-06T14:19:51;11.70;80.60
36450;DHT22;22475;51.390;7.180;2023-04-06T14:22:18;11.70;80.70
36450;DHT22;22475;51.390;7.180;2023-04-06T14:24:45;11.60;80.80
36450;DHT22;22475;51.390;7.180;2023-04-06T14:27:13;11.70;80.90
36450;DHT22;22475;51.390;7.180;2023-04-06T14:29:40;11.70;81.00
36450;DHT22;22475;51.390;7.180;2023-04-06T14:32:07;11.70;81.80
36450;DHT22;22475;51.390;7.180;2023-04-06T14:34:36;11.70;81.10
36450;DHT22;22475;51.390;7.180;2023-04-06T14:37:03;11.70;81.00
36450;DHT22;22475;51.390;7.180;2023-04-06T14:39:30;11.70;81.00
36450;DHT22;22475;51.390;7.180;2023-04-06T14:41:57;11.70;81.00
36450;DHT22;22475;51.390;7.180;2023-04-06T14:44:25;11.70;81.00
36450;DHT22;22475;51.390;7.180;2023-04-06T14:46:52;11.70;81.00
36450;DHT22;22475;51.390;7.180;2023-04-06T14:49:18;11.70;81.00
36450;DHT22;22475;51.390;7.180;2023-04-06T14:51:45;11.70;81.10
36450;DHT22;22475;51.390;7.180;2023-04-06T14:54:12;11.70;81.20
36450;DHT22;22475;51.390;7.180;2023-04-06T14:56:41;11.70;81.20
36450;DHT22;22475;51.390;7.180;2023-04-06T14:59:08;11.70;81.30
36450;DHT22;22475;51.390;7.180;2023-04-06T15:01:36;11.70;81.30
36450;DHT22;22475;51.390;7.180;2023-04-06T15:04:03;11.80;81.40
36450;DHT22;22475;51.390;7.180;2023-04-06T15:06:31;11.80;81.50
36450;DHT22;22475;51.390;7.180;2023-04-06T15:08:58;11.70;81.40
36450;DHT22;22475;51.390;7.180;2023-04-06T15:11:24;11.80;81.50
36450;DHT22;22475;51.390;7.180;2023-04-06T15:13:51;11.70;81.40
36450;DHT22;22475;51.390;7.180;2023-04-06T15:16:18;11.80;81.50
36450;DHT22;22475;51.390;7.180;2023-04-06T15:18:46;11.80;81.60
36450;DHT22;22475;51.390;7.180;2023-04-06T15:21:13;11.80;81.60
36450;DHT22;22475;51.390;7.180;2023-04-06T15:23:40;11.80;81.70
36450;DHT22;22475;51.390;7.180;2023-04-06T15:26:07;11.80;81.60
36450;DHT22;22475;51.390;7.180;2023-04-06T15:28:34;11.80;81.70
36450;DHT22;22475;51.390;7.180;2023-04-06T15:31:00;11.80;81.70